Time;durP1;ratioP1;P1;durP2;ratioP2;P2;SDS_P1;SDS_P2;PMS_P1;PMS_P2;Temp;Humidity;BMP_temperature;BMP_pressure;BME280_temperature;BME280_humidity;BME280_pressure;Samples;Min_cycle;Max_cycle;Signal;HPM_P1;HPM_P2
2021/01/28 00:02:28;;;;;;;79.75;32.00;;;;;;;28.95;54.69;101136.91;4958806;28;70228;-28
2021/01/28 00:04:59;;;;;;;82.13;36.30;;;;;;;28.84;55.78;101151.81;4940603;28;65865;-30
2021/01/28 00:07:29;;;;;;;82.90;38.05;;;;;;;28.84;56.73;101151.81;4962720;28;69579;-30
2021/01/28 00:10:00;;;;;;;73.13;40.50;;;;;;;28.75;57.26;101158.38;4955483;28;65206;-28
2021/01/28 00:12:31;;;;;;;84.35;46.50;;;;;;;28.70;57.33;101160.88;4958714;28;70119;-28
2021/01/28 00:15:03;;;;;;;80.50;44.08;;;;;;;28.63;57.73;101160.81;4957200;28;65825;-30
2021/01/28 00:17:34;;;;;;;71.82;42.90;;;;;;;28.71;57.96;101174.16;4971640;28;70093;-29
2021/01/28 00:20:14;;;;;;;78.65;41.72;;;;;;;28.73;58.18;101165.88;4959284;28;66370;-29
2021/01/28 00:22:45;;;;;;;77.53;40.40;;;;;;;28.83;58.34;101182.50;4959028;28;70501;-29
2021/01/28 00:25:19;;;;;;;85.25;38.80;;;;;;;28.90;58.22;101180.69;4954267;28;66028;-30
2021/01/28 00:27:51;;;;;;;71.95;39.45;;;;;;;29.02;57.70;101185.53;4952983;28;70702;-29
2021/01/28 00:30:32;;;;;;;74.30;37.85;;;;;;;28.95;57.81;101167.44;4958639;28;66135;-30
2021/01/28 00:33:04;;;;;;;73.32;38.28;;;;;;;29.14;57.37;101194.75;4954449;28;70453;-30
2021/01/28 00:35:40;;;;;;;73.43;39.22;;;;;;;29.10;57.67;101188.09;4950479;28;66713;-30
2021/01/28 00:38:17;;;;;;;67.28;39.65;;;;;;;29.22;57.15;101213.50;4955148;28;70121;-29
2021/01/28 00:40:48;;;;;;;86.13;54.35;;;;;;;29.09;58.11;101208.06;4954776;28;66214;-29
2021/01/28 00:43:20;;;;;;;99.95;57.42;;;;;;;28.99;58.28;101215.66;4945975;28;70069;-31
2021/01/28 00:45:50;;;;;;;98.13;57.00;;;;;;;28.85;59.26;101218.25;4989924;28;66014;-30
2021/01/28 00:48:24;;;;;;;102.53;59.13;;;;;;;28.79;59.47;101227.16;4949336;28;69917;-29
2021/01/28 00:50:57;;;;;;;104.05;59.03;;;;;;;28.76;59.86;101241.06;4957878;28;66166;-28
2021/01/28 00:53:27;;;;;;;102.18;56.20;;;;;;;28.68;60.12;101243.91;4954865;28;69940;-31
2021/01/28 00:55:58;;;;;;;96.38;57.83;;;;;;;28.70;60.17;101241.84;4957948;28;66062;-31
2021/01/28 00:58:38;;;;;;;91.88;58.80;;;;;;;28.69;60.48;101246.38;4972007;28;70530;-32
2021/01/28 01:01:09;;;;;;;107.15;56.63;;;;;;;28.72;60.22;101255.97;4972542;28;65339;-32
2021/01/28 01:03:40;;;;;;;90.53;54.88;;;;;;;28.80;59.67;101258.53;4948795;28;69100;-31
2021/01/28 01:06:12;;;;;;;97.13;54.65;;;;;;;28.82;59.50;101261.88;4958862;28;65445;-31
2021/01/28 01:08:42;;;;;;;89.40;54.97;;;;;;;28.89;59.49;101264.59;4959508;28;70653;-32
2021/01/28 01:11:19;;;;;;;88.38;51.63;;;;;;;28.90;59.34;101264.41;4955823;28;66162;-33
2021/01/28 01:13:54;;;;;;;87.57;51.50;;;;;;;28.80;59.25;101253.13;4973309;28;70162;-33
2021/01/28 01:16:28;;;;;;;85.35;50.13;;;;;;;28.94;59.11;101276.47;4973143;28;65754;-32
2021/01/28 01:19:11;;;;;;;86.00;51.75;;;;;;;29.00;59.60;101287.53;4959460;28;69111;-31
2021/01/28 01:22:00;;;;;;;87.18;50.25;;;;;;;28.91;59.19;101266.06;4971830;28;65307;-32
2021/01/28 01:24:32;;;;;;;80.57;48.58;;;;;;;29.02;59.00;101294.41;4959072;28;69287;-31
2021/01/28 01:27:04;;;;;;;85.20;48.30;;;;;;;29.07;58.78;101300.06;4960074;28;65347;-32
2021/01/28 01:29:36;;;;;;;79.13;47.38;;;;;;;29.08;58.65;101307.13;4956060;28;70123;-32
2021/01/28 01:32:09;;;;;;;74.80;46.88;;;;;;;29.11;58.78;101311.31;4959035;28;65209;-32
2021/01/28 01:35:17;;;;;;;80.63;45.80;;;;;;;29.13;58.63;101309.25;4917774;28;70030;-32
2021/01/28 01:37:51;;;;;;;72.45;44.97;;;;;;;29.15;58.13;101308.03;4953739;28;65041;-32
2021/01/28 01:40:39;;;;;;;72.18;44.15;;;;;;;29.16;58.20;101322.38;4973589;28;69411;-32
2021/01/28 01:43:12;;;;;;;68.40;43.88;;;;;;;29.19;58.55;101321.97;4950750;28;66178;-32
2021/01/28 01:45:45;;;;;;;76.20;44.60;;;;;;;29.20;58.41;101318.25;4988910;28;69477;-32
2021/01/28 01:48:24;;;;;;;76.03;43.60;;;;;;;29.22;58.07;101324.25;4974425;28;66204;-31
2021/01/28 01:51:10;;;;;;;65.53;42.85;;;;;;;29.20;58.18;101317.38;4958059;28;70119;-31
2021/01/28 01:53:55;;;;;;;64.13;41.80;;;;;;;29.12;57.86;101299.50;4989878;28;66222;-32
2021/01/28 01:56:36;;;;;;;73.60;43.55;;;;;;;29.28;57.86;101326.19;4956494;28;69811;-32
2021/01/28 01:59:14;;;;;;;71.97;41.80;;;;;;;29.36;57.52;101322.47;4959365;28;66132;-32
2021/01/28 02:02:12;;;;;;;71.72;41.72;;;;;;;29.30;58.11;101318.69;4951439;28;69359;-31
2021/01/28 02:05:29;;;;;;;65.35;39.45;;;;;;;29.19;57.68;101300.34;4960808;28;66287;-32
2021/01/28 02:08:19;;;;;;;59.55;39.10;;;;;;;29.38;57.71;101326.66;4961117;28;69628;-33
2021/01/28 02:11:11;;;;;;;63.00;38.50;;;;;;;29.34;57.77;101314.59;4955884;28;65396;-32
2021/01/28 02:14:10;;;;;;;69.75;40.38;;;;;;;29.27;57.58;101297.50;4971508;28;69410;-32
2021/01/28 02:16:56;;;;;;;58.35;38.25;;;;;;;29.46;57.41;101324.81;4959463;28;66272;-32
2021/01/28 02:20:23;;;;;;;58.75;38.20;;;;;;;29.44;57.26;101329.59;4962024;28;70032;-31
2021/01/28 02:24:03;;;;;;;59.05;37.08;;;;;;;29.44;57.25;101332.28;4961832;28;66252;-31
2021/01/28 02:26:34;;;;;;;55.05;36.17;;;;;;;29.48;57.28;101326.31;4928519;28;68957;-33
2021/01/28 02:29:30;;;;;;;56.35;37.92;;;;;;;29.51;57.19;101325.91;4901433;28;66218;-31
2021/01/28 02:32:03;;;;;;;57.53;37.75;;;;;;;29.36;57.68;101296.31;4940440;28;71215;-31
2021/01/28 02:34:38;;;;;;;61.80;37.72;;;;;;;29.52;57.82;101315.91;4986105;28;65856;-32
2021/01/28 02:37:22;;;;;;;61.50;38.90;;;;;;;29.57;58.10;101311.56;4985483;28;69246;-33
2021/01/28 02:39:59;;;;;;;79.32;46.92;;;;;;;29.71;58.38;101315.19;4991371;28;64847;-31
2021/01/28 02:43:01;;;;;;;;;;;;;;;29.72;58.01;101303.34;4944723;28;69871;-32
2021/01/28 02:46:14;;;;;;;86.00;53.15;;;;;;;29.68;59.57;101296.69;4960348;28;66409;-32
2021/01/28 02:49:03;;;;;;;85.55;56.00;;;;;;;29.72;58.81;101300.63;4970052;28;69619;-31
2021/01/28 02:51:43;;;;;;;84.60;56.20;;;;;;;29.73;58.30;101286.09;4970908;28;66149;-32
2021/01/28 02:54:21;;;;;;;98.22;57.78;;;;;;;29.76;58.84;101279.44;4966265;28;69970;-33
2021/01/28 02:56:52;;;;;;;91.78;56.88;;;;;;;29.67;59.09;101281.50;4959165;28;65993;-32
2021/01/28 02:59:23;;;;;;;87.40;55.85;;;;;;;29.69;59.33;101278.56;4958211;28;70987;-32
2021/01/28 03:02:04;;;;;;;105.97;58.33;;;;;;;29.76;59.02;101285.69;4959603;28;66072;-35
2021/01/28 03:04:35;;;;;;;89.85;55.30;;;;;;;29.82;58.54;101276.75;4957783;28;70129;-32
2021/01/28 03:07:26;;;;;;;88.25;55.92;;;;;;;29.82;58.66;101267.81;4960115;28;65488;-31
2021/01/28 03:09:58;;;;;;;86.72;53.35;;;;;;;29.85;58.97;101272.81;4960699;28;69991;-33
2021/01/28 03:12:59;;;;;;;82.43;51.47;;;;;;;29.82;58.89;101274.03;4968086;28;66049;-32
2021/01/28 03:15:52;;;;;;;82.90;50.42;;;;;;;29.84;58.65;101266.56;4958211;28;69385;-32
2021/01/28 03:18:23;;;;;;;73.88;52.10;;;;;;;29.92;58.81;101267.41;4957404;28;65280;-34
2021/01/28 03:20:57;;;;;;;80.65;51.35;;;;;;;29.88;59.00;101267.00;4963341;28;70099;-33
2021/01/28 03:23:48;;;;;;;79.82;50.13;;;;;;;29.94;58.33;101265.34;4950722;28;66518;-33
2021/01/28 03:26:37;;;;;;;86.95;48.28;;;;;;;29.99;58.62;101258.28;4971309;28;69423;-33
2021/01/28 03:29:11;;;;;;;81.27;50.20;;;;;;;29.80;58.67;101216.63;4959504;28;66158;-33
2021/01/28 03:31:43;;;;;;;76.45;48.50;;;;;;;30.10;57.88;101254.13;4959493;28;69323;-32
2021/01/28 03:34:19;;;;;;;82.93;49.17;;;;;;;30.09;58.02;101247.06;4960181;28;65994;-33
2021/01/28 03:36:51;;;;;;;78.80;48.95;;;;;;;30.16;57.94;101242.47;4973909;28;70124;-34
2021/01/28 03:39:27;;;;;;;73.97;47.33;;;;;;;30.26;57.94;101242.13;4960418;28;65913;-33
2021/01/28 03:41:57;;;;;;;78.75;49.53;;;;;;;30.33;57.95;101236.69;4992175;28;69354;-33
2021/01/28 03:44:29;;;;;;;81.30;50.87;;;;;;;30.32;57.80;101238.56;4948389;28;65955;-33
2021/01/28 03:47:01;;;;;;;78.20;50.47;;;;;;;30.41;57.46;101236.47;4949421;28;71097;-33
2021/01/28 03:49:51;;;;;;;78.20;50.30;;;;;;;30.42;57.14;101224.59;4953101;28;65974;-32
2021/01/28 03:52:25;;;;;;;79.85;51.00;;;;;;;30.48;57.14;101218.38;4960797;28;69220;-32
2021/01/28 03:55:16;;;;;;;82.22;49.53;;;;;;;30.49;57.14;101211.91;4945860;28;65452;-33
2021/01/28 03:57:52;;;;;;;76.20;49.00;;;;;;;30.55;57.35;101207.53;4949396;28;70100;-33
2021/01/28 04:00:28;;;;;;;73.32;46.88;;;;;;;30.46;57.51;101182.56;4982439;28;67298;-31
2021/01/28 04:03:22;;;;;;;70.78;43.55;;;;;;;30.59;57.57;101206.06;4970458;28;69978;-32
2021/01/28 04:06:14;;;;;;;64.18;40.72;;;;;;;30.58;57.45;101194.41;4953845;28;66207;-32
2021/01/28 04:09:07;;;;;;;61.10;41.15;;;;;;;30.67;57.50;101198.56;4953073;28;69554;-34
2021/01/28 04:12:16;;;;;;;57.63;38.88;;;;;;;30.70;57.42;101195.44;4943649;28;66179;-33
2021/01/28 04:15:06;;;;;;;50.85;35.80;;;;;;;30.69;57.54;101185.63;4958397;28;70050;-34
2021/01/28 04:17:48;;;;;;;43.72;33.60;;;;;;;30.71;57.22;101188.13;4958226;28;66705;-32
2021/01/28 04:20:33;;;;;;;43.40;33.28;;;;;;;30.71;56.81;101172.72;4988145;28;69977;-32
2021/01/28 04:23:11;;;;;;;48.30;32.08;;;;;;;30.69;57.21;101166.66;4955408;28;65550;-32
2021/01/28 04:26:07;;;;;;;43.70;30.92;;;;;;;30.76;56.56;101168.53;4962408;28;69313;-32
2021/01/28 04:28:43;;;;;;;44.72;30.98;;;;;;;30.71;56.61;101153.75;4948957;28;65280;-33
2021/01/28 04:31:34;;;;;;;38.90;30.00;;;;;;;30.75;56.43;101150.63;4959836;28;69779;-35
2021/01/28 04:34:12;;;;;;;46.78;29.83;;;;;;;30.81;56.54;101147.91;4989741;28;65397;-36
2021/01/28 04:36:45;;;;;;;32.63;27.75;;;;;;;30.78;56.51;101137.47;4955552;28;69809;-33
2021/01/28 04:39:34;;;;;;;32.38;26.55;;;;;;;30.79;56.57;101143.75;4957650;28;65363;-32
2021/01/28 04:42:06;;;;;;;33.97;27.52;;;;;;;30.79;56.18;101135.63;4984066;28;69200;-32
2021/01/28 04:44:37;;;;;;;30.95;27.27;;;;;;;30.82;56.14;101140.63;4952412;28;66166;-32
2021/01/28 04:47:20;;;;;;;33.88;25.75;;;;;;;30.85;56.49;101126.66;4958236;28;69989;-33
2021/01/28 04:49:59;;;;;;;30.05;25.80;;;;;;;30.93;55.64;101123.72;4955136;28;65799;-36
2021/01/28 04:52:36;;;;;;;27.73;24.75;;;;;;;30.87;56.20;101119.13;4953929;28;70272;-31
2021/01/28 04:55:43;;;;;;;34.05;24.67;;;;;;;30.92;55.95;101112.06;4951665;28;65510;-32
2021/01/28 04:58:15;;;;;;;30.80;24.15;;;;;;;30.93;56.07;101110.19;4949330;28;70048;-32
2021/01/28 05:01:06;;;;;;;28.67;23.38;;;;;;;30.93;56.15;101102.06;4941385;28;66190;-33
2021/01/28 05:04:08;;;;;;;28.23;23.23;;;;;;;30.95;55.46;101089.09;4956723;28;69877;-32
2021/01/28 05:07:00;;;;;;;25.98;22.90;;;;;;;31.03;55.11;101091.56;4955633;28;65952;-34
2021/01/28 05:10:15;;;;;;;29.70;22.95;;;;;;;31.08;55.86;101083.63;4939954;28;69837;-34
2021/01/28 05:13:27;;;;;;;27.25;22.70;;;;;;;30.98;53.80;101071.59;4956784;28;66204;-33
2021/01/28 05:16:48;;;;;;;36.55;22.75;;;;;;;30.66;52.24;101053.38;4947120;28;70454;-33
2021/01/28 05:19:39;;;;;;;40.90;22.77;;;;;;;30.62;50.60;101064.84;4958127;28;65291;-35
2021/01/28 05:22:36;;;;;;;28.40;22.63;;;;;;;30.54;50.30;101055.09;4949079;28;70034;-33
2021/01/28 05:25:40;;;;;;;26.88;22.42;;;;;;;30.40;48.41;101058.91;4946943;28;66052;-34
2021/01/28 05:28:41;;;;;;;30.50;22.02;;;;;;;30.25;47.29;101056.41;4953775;28;69383;-32
2021/01/28 05:31:33;;;;;;;36.08;21.38;;;;;;;30.16;46.00;101052.25;4957666;28;66493;-33
2021/01/28 05:34:36;;;;;;;27.98;21.85;;;;;;;30.11;45.90;101039.34;4941928;28;70464;-33
2021/01/28 05:37:19;;;;;;;22.95;20.48;;;;;;;29.92;45.42;101007.75;4956774;28;66144;-35
2021/01/28 05:40:20;;;;;;;21.38;19.20;;;;;;;30.01;45.20;101022.75;4952794;28;69868;-35
2021/01/28 05:43:35;;;;;;;25.10;20.63;;;;;;;29.94;43.99;101025.44;4977311;28;65958;-34
2021/01/28 05:46:17;;;;;;;22.60;19.92;;;;;;;29.89;42.37;101025.25;4929945;28;68695;-34
2021/01/28 05:49:23;;;;;;;21.90;19.60;;;;;;;29.87;43.13;101021.09;4935708;28;66109;-33
2021/01/28 05:52:30;;;;;;;21.27;19.00;;;;;;;29.78;41.55;101010.50;4955420;28;69645;-33
2021/01/28 05:55:19;;;;;;;20.85;18.73;;;;;;;29.74;41.98;101001.13;4966756;28;65806;-31
2021/01/28 05:57:59;;;;;;;22.75;20.35;;;;;;;29.74;41.30;101006.56;4975599;28;69747;-36
2021/01/28 06:00:55;;;;;;;22.27;18.77;;;;;;;29.72;41.87;100991.56;4979339;28;66107;-34
2021/01/28 06:03:59;;;;;;;21.30;18.05;;;;;;;29.68;40.67;100991.16;4960057;28;70943;-35
2021/01/28 06:07:00;;;;;;;24.95;18.80;;;;;;;29.70;40.46;100977.44;4978510;28;66344;-32
2021/01/28 06:10:07;;;;;;;25.92;19.15;;;;;;;29.62;39.97;100960.38;4975131;28;69354;-35
2021/01/28 06:13:16;;;;;;;20.67;17.85;;;;;;;29.66;40.18;100958.09;4975874;28;65375;-33
2021/01/28 06:16:09;;;;;;;20.75;17.42;;;;;;;29.59;40.21;100954.56;4977925;28;70128;-31
2021/01/28 06:18:51;;;;;;;27.85;18.20;;;;;;;29.59;39.69;100944.56;4975409;28;65400;-32
2021/01/28 06:21:55;;;;;;;20.63;17.33;;;;;;;29.56;39.55;100938.72;4971677;28;70522;-34
2021/01/28 06:24:55;;;;;;;23.80;17.35;;;;;;;29.57;39.74;100937.72;4955758;28;65453;-36
2021/01/28 06:27:34;;;;;;;18.35;16.33;;;;;;;29.54;39.38;100930.03;4957841;28;69085;-33
2021/01/28 06:30:32;;;;;;;20.63;17.50;;;;;;;29.51;39.49;100920.47;4957037;28;65429;-34
2021/01/28 06:33:29;;;;;;;19.65;17.38;;;;;;;29.52;38.69;100915.88;4958527;28;70135;-32
2021/01/28 06:36:34;;;;;;;18.73;16.60;;;;;;;29.39;37.97;100882.44;4960410;28;65353;-35
2021/01/28 06:39:29;;;;;;;20.02;17.70;;;;;;;29.55;38.99;100893.84;4960641;28;69288;-33
2021/01/28 06:42:19;;;;;;;18.42;16.67;;;;;;;29.51;37.72;100892.63;4976745;28;65400;-33
2021/01/28 06:45:20;;;;;;;17.83;16.33;;;;;;;29.50;38.34;100891.75;4953704;28;69249;-34
2021/01/28 06:48:06;;;;;;;18.60;16.90;;;;;;;29.53;37.61;100874.28;4961504;28;65462;-34
2021/01/28 06:51:18;;;;;;;18.85;16.95;;;;;;;29.54;38.25;100870.56;4958699;28;69884;-34
2021/01/28 06:54:03;;;;;;;17.02;15.30;;;;;;;29.49;38.29;100864.97;4953971;28;66690;-32
2021/01/28 06:57:00;;;;;;;;;;;;;;;29.55;38.61;100866.81;4959992;28;70033;-34
2021/01/28 07:00:31;;;;;;;17.60;16.15;;;;;;;29.39;37.01;100839.22;4955057;28;66474;-34
2021/01/28 07:03:30;;;;;;;18.35;15.40;;;;;;;29.53;37.31;100858.06;4958924;28;70324;-34
2021/01/28 07:06:48;;;;;;;16.15;14.85;;;;;;;29.53;37.28;100845.41;4955791;28;67130;-32
2021/01/28 07:09:59;;;;;;;16.63;14.93;;;;;;;29.34;36.97;100816.56;4955627;28;69757;-33
2021/01/28 07:12:41;;;;;;;15.02;13.70;;;;;;;29.35;36.53;100808.22;4975015;28;66497;-32
2021/01/28 07:15:32;;;;;;;14.88;13.25;;;;;;;29.48;37.77;100826.28;4954348;28;70709;-34
2021/01/28 07:18:19;;;;;;;16.15;14.55;;;;;;;29.51;37.03;100822.34;4960106;28;66236;-32
2021/01/28 07:21:05;;;;;;;15.27;13.85;;;;;;;29.50;37.28;100826.88;4961015;28;69113;-33
2021/01/28 07:23:39;;;;;;;16.73;14.50;;;;;;;29.54;37.62;100811.09;4972614;28;66234;-32
2021/01/28 07:26:18;;;;;;;16.60;14.55;;;;;;;29.58;37.24;100820.44;4974976;28;69970;-32
2021/01/28 07:28:49;;;;;;;44.30;17.88;;;;;;;29.67;42.21;100810.25;4958469;28;66208;-32
2021/01/28 07:31:43;;;;;;;31.92;20.83;;;;;;;29.97;48.15;100813.22;4970313;28;71442;-34
2021/01/28 07:34:18;;;;;;;30.55;21.85;;;;;;;30.28;49.80;100804.34;4989110;28;65469;-33
2021/01/28 07:36:55;;;;;;;42.65;22.83;;;;;;;30.48;48.93;100806.94;4955866;28;70300;-34
2021/01/28 07:39:46;;;;;;;31.52;22.75;;;;;;;30.72;48.58;100808.81;4947834;28;65710;-32
2021/01/28 07:42:35;;;;;;;30.38;20.77;;;;;;;30.98;49.40;100816.94;4960799;28;69508;-33
2021/01/28 07:45:31;;;;;;;35.28;21.83;;;;;;;31.02;50.30;100794.63;4960832;28;65815;-33
2021/01/28 07:48:32;;;;;;;32.65;23.20;;;;;;;31.28;50.27;100800.81;4963069;28;69195;-32
2021/01/28 07:51:30;;;;;;;43.33;26.02;;;;;;;31.41;50.96;100814.25;4957855;28;65906;-32
2021/01/28 07:54:24;;;;;;;41.42;25.35;;;;;;;31.52;52.43;100813.50;4960437;28;70135;-31
2021/01/28 07:57:04;;;;;;;50.75;28.10;;;;;;;31.59;51.95;100814.25;4960305;28;66934;-33
2021/01/28 07:59:35;;;;;;;38.27;26.70;;;;;;;31.65;51.97;100811.66;4960801;28;70611;-33
2021/01/28 08:02:31;;;;;;;49.17;27.45;;;;;;;31.66;53.46;100808.75;4959551;28;66091;-32
2021/01/28 08:05:22;;;;;;;46.72;28.25;;;;;;;31.73;52.86;100814.09;4958721;28;68891;-32
2021/01/28 08:08:07;;;;;;;41.58;27.75;;;;;;;31.58;53.85;100793.59;4974958;28;65548;-34
2021/01/28 08:10:40;;;;;;;53.65;28.45;;;;;;;31.78;53.29;100814.22;4951032;28;70074;-32
2021/01/28 08:13:20;;;;;;;55.22;29.17;;;;;;;31.79;54.24;100813.19;4956107;28;66728;-34
2021/01/28 08:16:06;;;;;;;57.75;28.48;;;;;;;31.90;52.85;100809.72;4951311;28;69528;-32
2021/01/28 08:18:40;;;;;;;39.40;26.83;;;;;;;31.78;53.41;100789.81;4956718;28;66462;-33
2021/01/28 08:21:20;;;;;;;48.67;27.85;;;;;;;31.91;53.01;100805.97;4953487;28;69790;-31
2021/01/28 08:23:52;;;;;;;53.08;27.55;;;;;;;32.07;52.73;100815.34;4967783;28;66723;-33
2021/01/28 08:26:31;;;;;;;;;;;;;;;32.02;53.31;100818.75;4958294;28;70591;-31
2021/01/28 08:29:20;;;;;;;45.70;25.27;;;;;;;32.14;54.00;100809.81;4959574;28;66250;-31
2021/01/28 08:31:53;;;;;;;46.90;25.80;;;;;;;32.21;53.16;100811.38;4971404;28;70139;-33
2021/01/28 08:34:27;;;;;;;44.50;25.95;;;;;;;32.21;53.55;100822.25;4959683;28;66040;-32
2021/01/28 08:37:03;;;;;;;48.40;27.23;;;;;;;32.26;53.42;100819.66;4959540;28;69286;-34
2021/01/28 08:39:36;;;;;;;45.40;27.60;;;;;;;32.26;53.66;100829.66;4956626;28;65402;-34
2021/01/28 08:42:13;;;;;;;45.05;25.23;;;;;;;32.30;53.99;100820.03;4959053;28;71133;-33
2021/01/28 08:44:46;;;;;;;50.33;25.90;;;;;;;32.37;53.45;100823.44;4957321;28;66045;-35
2021/01/28 08:47:23;;;;;;;43.88;24.85;;;;;;;32.25;53.99;100807.13;4959327;28;69630;-34
2021/01/28 08:50:24;;;;;;;45.50;23.35;;;;;;;32.34;53.79;100825.81;4960108;28;66235;-33
2021/01/28 08:53:20;;;;;;;46.58;23.38;;;;;;;32.41;53.66;100832.81;4957602;28;70020;-33
2021/01/28 08:56:02;;;;;;;42.58;22.63;;;;;;;32.42;53.46;100818.16;4958020;28;66105;-33
2021/01/28 08:58:40;;;;;;;40.25;22.17;;;;;;;32.47;53.54;100833.78;4963555;28;70988;-33
2021/01/28 09:01:13;;;;;;;46.15;21.77;;;;;;;32.43;53.51;100825.25;4955571;28;65252;-33
2021/01/28 09:04:14;;;;;;;66.32;23.77;;;;;;;32.44;53.19;100831.50;4958760;28;69661;-33
2021/01/28 09:06:53;;;;;;;54.10;22.90;;;;;;;32.48;53.25;100833.56;4960111;28;65983;-34
2021/01/28 09:09:34;;;;;;;44.25;22.35;;;;;;;32.44;53.55;100843.19;4959557;28;70535;-34
2021/01/28 09:12:28;;;;;;;44.22;21.35;;;;;;;32.31;53.23;100821.66;4957654;28;65088;-33
2021/01/28 09:15:18;;;;;;;51.92;22.83;;;;;;;32.44;52.93;100848.63;4959079;28;69276;-33
2021/01/28 09:17:48;;;;;;;48.08;21.55;;;;;;;32.52;52.43;100849.41;4961734;28;65297;-33
2021/01/28 09:20:32;;;;;;;44.30;21.33;;;;;;;32.43;52.83;100844.25;4993508;28;70458;-32
2021/01/28 09:23:19;;;;;;;43.30;20.95;;;;;;;32.40;53.35;100846.59;4963506;28;65755;-32
2021/01/28 09:26:19;;;;;;;45.08;21.70;;;;;;;32.38;53.18;100854.97;4958078;28;70327;-33
2021/01/28 09:28:54;;;;;;;58.80;22.35;;;;;;;32.44;52.76;100858.66;4963311;28;67178;-33
2021/01/28 09:31:31;;;;;;;49.53;22.02;;;;;;;32.49;52.94;100856.94;4961030;28;69729;-32
2021/01/28 09:34:30;;;;;;;45.10;20.80;;;;;;;32.67;52.64;100858.75;4959815;28;66658;-33
2021/01/28 09:37:08;;;;;;;47.63;22.08;;;;;;;32.76;52.08;100851.06;4957315;28;70089;-35
2021/01/28 09:39:48;;;;;;;44.58;20.15;;;;;;;32.82;52.17;100861.03;4960437;28;66125;-33
2021/01/28 09:42:30;;;;;;;38.38;21.13;;;;;;;32.62;51.72;100817.03;4963388;28;69124;-33
2021/01/28 09:45:20;;;;;;;36.40;20.88;;;;;;;32.91;51.37;100862.31;4960724;28;67174;-32
2021/01/28 09:47:58;;;;;;;36.97;18.95;;;;;;;32.94;51.37;100864.56;4960805;28;70488;-35
2021/01/28 09:50:29;;;;;;;36.00;18.48;;;;;;;32.99;51.40;100865.75;4961880;28;66672;-34
2021/01/28 09:52:59;;;;;;;45.10;19.35;;;;;;;33.03;50.87;100858.81;4962277;28;69631;-34
2021/01/28 09:55:32;;;;;;;44.55;18.95;;;;;;;33.04;51.42;100857.75;4960888;28;66018;-33
2021/01/28 09:58:04;;;;;;;37.58;18.63;;;;;;;33.02;50.94;100862.63;4961604;28;69669;-32
2021/01/28 10:00:34;;;;;;;;;;;;;;;33.07;50.77;100857.28;4993994;28;64766;-32
2021/01/28 10:03:06;;;;;;;33.33;17.52;;;;;;;32.99;50.64;100839.41;4962605;28;69507;-34
2021/01/28 10:05:37;;;;;;;29.95;17.60;;;;;;;33.11;50.69;100863.91;4962933;28;65359;-33
2021/01/28 10:08:08;;;;;;;36.45;17.75;;;;;;;33.12;50.41;100857.41;4962383;28;69617;-34
2021/01/28 10:10:38;;;;;;;39.65;18.48;;;;;;;33.08;50.52;100862.50;4963016;28;66271;-33
2021/01/28 10:13:12;;;;;;;31.85;17.35;;;;;;;33.10;50.28;100873.13;4963072;28;69903;-32
2021/01/28 10:15:43;;;;;;;24.45;16.85;;;;;;;33.10;50.43;100879.41;4960443;28;65819;-33
2021/01/28 10:18:14;;;;;;;32.55;17.13;;;;;;;33.11;50.30;100875.59;4961840;28;69784;-33
2021/01/28 10:20:44;;;;;;;30.38;17.05;;;;;;;33.06;50.14;100874.66;4961754;28;65284;-32
2021/01/28 10:23:15;;;;;;;37.42;16.90;;;;;;;33.08;50.23;100880.69;4961029;28;68995;-34
2021/01/28 10:25:46;;;;;;;31.70;17.05;;;;;;;33.06;50.21;100877.38;4962282;28;67278;-33
2021/01/28 10:28:16;;;;;;;33.67;18.02;;;;;;;33.06;50.37;100882.81;4962233;28;70305;-33
2021/01/28 10:30:46;;;;;;;22.65;15.93;;;;;;;32.87;50.01;100863.84;4960443;28;65987;-35
2021/01/28 10:33:18;;;;;;;33.88;17.15;;;;;;;33.04;50.04;100887.66;4959814;28;70086;-33
2021/01/28 10:35:49;;;;;;;;;;;;;;;33.02;49.79;100887.91;4961605;28;65944;-34
2021/01/28 10:38:19;;;;;;;26.25;16.00;;;;;;;33.05;49.83;100892.03;4960122;28;70288;-33
2021/01/28 10:40:54;;;;;;;26.97;15.37;;;;;;;32.98;49.77;100883.94;4960795;28;67264;-33
2021/01/28 10:43:26;;;;;;;31.60;16.70;;;;;;;32.97;49.79;100897.78;4961568;28;69894;-32
2021/01/28 10:45:57;;;;;;;28.70;17.20;;;;;;;32.98;49.90;100889.38;4962327;28;66688;-35
2021/01/28 10:48:31;;;;;;;35.42;17.85;;;;;;;32.64;49.49;100880.13;4991036;28;69188;-33
2021/01/28 10:51:03;;;;;;;28.60;17.70;;;;;;;32.52;49.71;100884.69;4960341;28;66089;-33
2021/01/28 10:53:36;;;;;;;39.33;19.45;;;;;;;32.36;49.49;100894.28;4961449;28;70528;-33
2021/01/28 10:56:08;;;;;;;41.28;18.40;;;;;;;32.25;49.70;100894.00;4956946;28;66716;-34
2021/01/28 10:58:39;;;;;;;;;;;;;;;32.17;50.08;100901.63;4954670;28;70618;-37
2021/01/28 11:01:10;;;;;;;44.75;17.25;;;;;;;32.14;50.67;100891.22;4987153;28;67259;-35
2021/01/28 11:03:42;;;;;;;38.70;15.57;;;;;;;32.10;50.73;100892.75;4948690;28;69990;-34
2021/01/28 11:06:13;;;;;;;;;;;;;;;32.04;51.18;100902.63;4956688;28;67321;-36
2021/01/28 11:08:46;;;;;;;43.30;15.15;;;;;;;32.11;50.67;100897.13;4951197;28;70434;-34
2021/01/28 11:11:19;;;;;;;31.92;15.05;;;;;;;32.09;50.58;100899.22;4960194;28;66678;-35
2021/01/28 11:14:10;;;;;;;31.15;15.10;;;;;;;32.08;50.50;100913.84;4957242;28;69572;-35
2021/01/28 11:16:42;;;;;;;40.97;15.25;;;;;;;32.03;50.64;100907.22;4953311;28;66725;-37
2021/01/28 11:19:13;;;;;;;51.25;16.10;;;;;;;31.97;50.04;100902.69;4945542;28;70029;-34
2021/01/28 11:21:43;;;;;;;31.77;16.50;;;;;;;31.95;50.27;100910.22;4954956;28;65077;-33
2021/01/28 11:24:14;;;;;;;34.78;15.95;;;;;;;31.98;49.88;100914.38;4948112;28;70198;-38
2021/01/28 11:26:46;;;;;;;30.20;16.70;;;;;;;31.96;49.66;100911.91;4983400;28;66615;-33
2021/01/28 11:29:22;;;;;;;29.60;16.08;;;;;;;32.01;49.83;100920.19;4954981;28;70088;-34
2021/01/28 11:31:53;;;;;;;39.30;17.05;;;;;;;32.04;50.52;100914.31;4953519;28;65366;-36
2021/01/28 11:34:28;;;;;;;27.65;15.75;;;;;;;32.05;50.54;100921.38;4944533;28;70037;-38
2021/01/28 11:36:58;;;;;;;28.85;16.00;;;;;;;32.10;51.19;100925.31;4986418;28;66620;-34
2021/01/28 11:39:29;;;;;;;40.00;16.58;;;;;;;32.05;51.06;100915.97;4960688;28;69230;-38
2021/01/28 11:41:59;;;;;;;35.40;17.20;;;;;;;32.09;51.57;100926.34;4957593;28;66122;-33
2021/01/28 11:44:30;;;;;;;33.92;15.70;;;;;;;32.05;51.65;100926.81;4959727;28;69879;-32
2021/01/28 11:47:01;;;;;;;29.08;16.65;;;;;;;32.04;52.17;100925.16;4952450;28;66050;-32
2021/01/28 11:49:31;;;;;;;27.17;16.23;;;;;;;32.07;52.43;100929.31;4956093;28;69896;-32
2021/01/28 11:52:11;;;;;;;31.17;16.50;;;;;;;32.08;52.86;100941.00;4958171;28;66013;-32
2021/01/28 11:54:42;;;;;;;30.45;16.08;;;;;;;32.11;52.50;100929.69;4954940;28;69066;-33
2021/01/28 11:57:13;;;;;;;26.25;17.08;;;;;;;32.08;52.74;100935.56;4959689;28;66008;-33
2021/01/28 11:59:43;;;;;;;30.20;16.95;;;;;;;32.08;53.30;100935.56;4960071;28;69388;-32
2021/01/28 12:02:15;;;;;;;27.00;16.67;;;;;;;32.08;53.38;100941.00;4959037;28;65967;-34
2021/01/28 12:04:46;;;;;;;28.33;17.00;;;;;;;32.04;53.56;100943.34;4958778;28;69332;-33
2021/01/28 12:07:19;;;;;;;31.05;17.65;;;;;;;32.09;53.40;100948.06;4958832;28;66417;-34
2021/01/28 12:09:51;;;;;;;24.58;16.75;;;;;;;32.03;53.20;100945.19;4960748;28;70070;-33
2021/01/28 12:12:21;;;;;;;31.15;16.08;;;;;;;31.95;52.92;100937.34;4952928;28;65117;-37
2021/01/28 12:14:52;;;;;;;32.60;16.73;;;;;;;31.90;52.56;100949.91;4957128;28;70583;-34
2021/01/28 12:17:23;;;;;;;27.23;16.00;;;;;;;31.88;52.44;100955.59;4953035;28;65296;-34
2021/01/28 12:19:54;;;;;;;28.07;15.23;;;;;;;31.77;51.80;100957.16;4943104;28;69137;-33
2021/01/28 12:22:25;;;;;;;31.42;15.77;;;;;;;31.73;52.19;100953.25;4949290;28;65392;-32